100LL.CA
Aviation Fuel Pricing for Canadians
Please upgrade your browser - Tested with IE9, FireFox, Chrome, Safari

Fuel Airports Other Help
Prices Economy Info List METAR/TAF Kneeboard Help

Reference Airport: THUNDER BAY, ON
N 48 22 19  W 089 19 18
Provinces to show:

CYQT THUNDER BAY, ON
WEATHER
METARCYQT 230200Z 33017G22KT 10SM -SN BKN060 OVC076 02/M03 A2958 RMK SC6AC2 SLP029
TAFTAF CYQT 230140Z 2302/2314 26010KT P6SM BKN030 TEMPO 2302/2303 5SM -RASN BR BKN020 BECMG 2302/2303 33012KT FM230300 32010G20KT P6SM -SN OVC030 TEMPO 2303/2305 2SM -SN OVC010 FM230500 34012KT P6SM BKN030 TEMPO 2305/2308 BKN020 FM230800 01010KT P6SM SCT030 RMK NXT FCST BY 230800Z
OTHER SITES

FlightAware

FltPlan

Google Maps

SkyVector
FUEL
FBO 100LL
member
100LL
public
JETA MOGAS
Skyfill Aviation Refuelling (2022-12-19)2.2261.954
  Note: $65 ramp/parking fee (waived if you buy gas) www.skyfill.ca
World Fuel (2022-05-06)2.714
Canada Flight Supplement - CYQT
(opens in new tab/window)


Please Send Updates!

Desktop Version ]  [ Mobile Version ]  [ Disclaimer ]